sensor_id;sensor_type;location;lat;lon;timestamp;P1;durP1;ratioP1;P2;durP2;ratioP2
21168;SDS011;10742;51.816;8.662;2023-04-24T00:00:10;0.47;;;0.47;;
21168;SDS011;10742;51.816;8.662;2023-04-24T00:03:16;1.03;;;0.90;;
21168;SDS011;10742;51.816;8.662;2023-04-24T00:06:19;1.80;;;0.80;;
21168;SDS011;10742;51.816;8.662;2023-04-24T00:09:21;1.10;;;0.90;;
21168;SDS011;10742;51.816;8.662;2023-04-24T00:12:24;1.63;;;0.90;;
21168;SDS011;10742;51.816;8.662;2023-04-24T00:15:27;1.93;;;1.00;;
21168;SDS011;10742;51.816;8.662;2023-04-24T00:18:29;0.83;;;0.83;;
21168;SDS011;10742;51.816;8.662;2023-04-24T00:21:32;0.63;;;0.63;;
21168;SDS011;10742;51.816;8.662;2023-04-24T00:24:34;3.50;;;0.70;;
21168;SDS011;10742;51.816;8.662;2023-04-24T00:27:37;0.80;;;0.80;;
21168;SDS011;10742;51.816;8.662;2023-04-24T00:30:40;0.87;;;0.87;;
21168;SDS011;10742;51.816;8.662;2023-04-24T00:33:43;1.43;;;0.80;;
21168;SDS011;10742;51.816;8.662;2023-04-24T00:36:45;1.17;;;0.87;;
21168;SDS011;10742;51.816;8.662;2023-04-24T00:39:48;1.40;;;0.60;;
21168;SDS011;10742;51.816;8.662;2023-04-24T00:42:50;1.87;;;1.27;;
21168;SDS011;10742;51.816;8.662;2023-04-24T00:45:52;0.70;;;0.70;;
21168;SDS011;10742;51.816;8.662;2023-04-24T00:48:56;0.87;;;0.87;;
21168;SDS011;10742;51.816;8.662;2023-04-24T00:52:00;0.97;;;0.90;;
21168;SDS011;10742;51.816;8.662;2023-04-24T00:55:04;0.83;;;0.83;;
21168;SDS011;10742;51.816;8.662;2023-04-24T00:58:07;2.77;;;1.00;;
21168;SDS011;10742;51.816;8.662;2023-04-24T01:01:10;1.87;;;0.97;;
21168;SDS011;10742;51.816;8.662;2023-04-24T01:04:13;0.93;;;0.80;;
21168;SDS011;10742;51.816;8.662;2023-04-24T01:07:20;1.07;;;1.00;;
21168;SDS011;10742;51.816;8.662;2023-04-24T01:10:25;0.80;;;0.80;;
21168;SDS011;10742;51.816;8.662;2023-04-24T01:13:31;0.93;;;0.87;;
21168;SDS011;10742;51.816;8.662;2023-04-24T01:16:34;1.07;;;0.80;;
21168;SDS011;10742;51.816;8.662;2023-04-24T01:19:37;3.07;;;1.00;;
21168;SDS011;10742;51.816;8.662;2023-04-24T01:22:40;1.10;;;1.00;;
21168;SDS011;10742;51.816;8.662;2023-04-24T01:25:43;1.27;;;0.97;;
21168;SDS011;10742;51.816;8.662;2023-04-24T01:28:46;0.93;;;0.93;;
21168;SDS011;10742;51.816;8.662;2023-04-24T01:31:49;0.73;;;0.73;;
21168;SDS011;10742;51.816;8.662;2023-04-24T01:34:52;2.23;;;1.13;;
21168;SDS011;10742;51.816;8.662;2023-04-24T01:37:55;3.27;;;0.70;;
21168;SDS011;10742;51.816;8.662;2023-04-24T01:40:59;1.00;;;0.83;;
21168;SDS011;10742;51.816;8.662;2023-04-24T01:44:01;1.60;;;0.83;;
21168;SDS011;10742;51.816;8.662;2023-04-24T01:47:04;0.80;;;0.80;;
21168;SDS011;10742;51.816;8.662;2023-04-24T01:50:07;0.90;;;0.90;;
21168;SDS011;10742;51.816;8.662;2023-04-24T01:53:13;1.57;;;1.20;;
21168;SDS011;10742;51.816;8.662;2023-04-24T01:56:16;0.80;;;0.80;;
21168;SDS011;10742;51.816;8.662;2023-04-24T01:59:19;2.17;;;0.90;;
21168;SDS011;10742;51.816;8.662;2023-04-24T02:02:23;0.80;;;0.80;;
21168;SDS011;10742;51.816;8.662;2023-04-24T02:05:31;1.10;;;1.10;;
21168;SDS011;10742;51.816;8.662;2023-04-24T02:08:33;0.83;;;0.83;;
21168;SDS011;10742;51.816;8.662;2023-04-24T02:11:36;0.90;;;0.90;;
21168;SDS011;10742;51.816;8.662;2023-04-24T02:14:38;3.80;;;0.90;;
21168;SDS011;10742;51.816;8.662;2023-04-24T02:17:41;0.90;;;0.90;;
21168;SDS011;10742;51.816;8.662;2023-04-24T02:20:43;2.07;;;1.00;;
21168;SDS011;10742;51.816;8.662;2023-04-24T02:23:46;0.90;;;0.70;;
21168;SDS011;10742;51.816;8.662;2023-04-24T02:26:48;1.07;;;0.73;;
21168;SDS011;10742;51.816;8.662;2023-04-24T02:29:51;1.50;;;1.10;;
21168;SDS011;10742;51.816;8.662;2023-04-24T02:32:53;0.70;;;0.70;;
21168;SDS011;10742;51.816;8.662;2023-04-24T02:35:56;1.97;;;0.90;;
21168;SDS011;10742;51.816;8.662;2023-04-24T02:38:58;0.80;;;0.80;;
21168;SDS011;10742;51.816;8.662;2023-04-24T02:42:01;1.30;;;0.80;;
21168;SDS011;10742;51.816;8.662;2023-04-24T02:45:05;1.53;;;0.83;;
21168;SDS011;10742;51.816;8.662;2023-04-24T02:48:08;1.30;;;0.73;;
21168;SDS011;10742;51.816;8.662;2023-04-24T02:51:10;0.87;;;0.60;;
21168;SDS011;10742;51.816;8.662;2023-04-24T02:54:13;2.00;;;0.93;;
21168;SDS011;10742;51.816;8.662;2023-04-24T02:57:15;0.50;;;0.50;;
21168;SDS011;10742;51.816;8.662;2023-04-24T03:00:18;0.60;;;0.60;;
21168;SDS011;10742;51.816;8.662;2023-04-24T03:03:21;0.70;;;0.70;;
21168;SDS011;10742;51.816;8.662;2023-04-24T03:06:24;1.83;;;0.80;;
21168;SDS011;10742;51.816;8.662;2023-04-24T03:09:26;1.53;;;0.70;;
21168;SDS011;10742;51.816;8.662;2023-04-24T03:12:29;0.83;;;0.83;;
21168;SDS011;10742;51.816;8.662;2023-04-24T03:15:31;0.93;;;0.83;;
21168;SDS011;10742;51.816;8.662;2023-04-24T03:18:34;1.10;;;0.87;;
21168;SDS011;10742;51.816;8.662;2023-04-24T03:21:38;2.00;;;1.30;;
21168;SDS011;10742;51.816;8.662;2023-04-24T03:24:42;1.90;;;1.00;;
21168;SDS011;10742;51.816;8.662;2023-04-24T03:27:46;1.27;;;0.83;;
21168;SDS011;10742;51.816;8.662;2023-04-24T03:31:08;1.60;;;0.70;;
21168;SDS011;10742;51.816;8.662;2023-04-24T03:34:12;0.90;;;0.90;;
21168;SDS011;10742;51.816;8.662;2023-04-24T03:37:14;2.60;;;0.80;;
21168;SDS011;10742;51.816;8.662;2023-04-24T03:40:24;1.13;;;1.03;;
21168;SDS011;10742;51.816;8.662;2023-04-24T03:43:27;1.23;;;1.10;;
21168;SDS011;10742;51.816;8.662;2023-04-24T03:46:32;1.10;;;1.07;;
21168;SDS011;10742;51.816;8.662;2023-04-24T03:49:36;1.10;;;1.10;;
21168;SDS011;10742;51.816;8.662;2023-04-24T03:52:39;2.53;;;1.40;;
21168;SDS011;10742;51.816;8.662;2023-04-24T03:55:43;2.97;;;1.60;;
21168;SDS011;10742;51.816;8.662;2023-04-24T03:58:45;2.57;;;1.50;;
21168;SDS011;10742;51.816;8.662;2023-04-24T04:01:48;1.50;;;1.40;;
21168;SDS011;10742;51.816;8.662;2023-04-24T04:04:51;2.87;;;1.30;;
21168;SDS011;10742;51.816;8.662;2023-04-24T04:07:54;4.13;;;1.57;;
21168;SDS011;10742;51.816;8.662;2023-04-24T04:10:57;2.93;;;1.43;;
21168;SDS011;10742;51.816;8.662;2023-04-24T04:13:59;1.93;;;1.30;;
21168;SDS011;10742;51.816;8.662;2023-04-24T04:17:02;1.63;;;1.00;;
21168;SDS011;10742;51.816;8.662;2023-04-24T04:20:05;1.30;;;1.20;;
21168;SDS011;10742;51.816;8.662;2023-04-24T04:23:14;1.30;;;1.20;;
21168;SDS011;10742;51.816;8.662;2023-04-24T04:26:27;1.70;;;1.20;;
21168;SDS011;10742;51.816;8.662;2023-04-24T04:29:36;1.70;;;1.50;;
21168;SDS011;10742;51.816;8.662;2023-04-24T04:32:42;1.83;;;1.63;;
21168;SDS011;10742;51.816;8.662;2023-04-24T04:36:03;1.30;;;1.20;;
21168;SDS011;10742;51.816;8.662;2023-04-24T04:39:27;2.43;;;1.57;;
21168;SDS011;10742;51.816;8.662;2023-04-24T04:42:58;1.97;;;1.50;;
21168;SDS011;10742;51.816;8.662;2023-04-24T04:46:29;3.07;;;1.60;;
21168;SDS011;10742;51.816;8.662;2023-04-24T04:50:01;2.93;;;1.57;;
21168;SDS011;10742;51.816;8.662;2023-04-24T04:53:24;3.30;;;1.77;;
21168;SDS011;10742;51.816;8.662;2023-04-24T04:56:27;3.17;;;1.73;;
21168;SDS011;10742;51.816;8.662;2023-04-24T04:59:32;2.13;;;1.90;;
21168;SDS011;10742;51.816;8.662;2023-04-24T05:02:40;5.50;;;2.33;;
21168;SDS011;10742;51.816;8.662;2023-04-24T05:05:43;4.93;;;3.03;;
21168;SDS011;10742;51.816;8.662;2023-04-24T05:08:48;7.63;;;3.93;;
21168;SDS011;10742;51.816;8.662;2023-04-24T05:12:16;8.67;;;4.93;;
21168;SDS011;10742;51.816;8.662;2023-04-24T05:15:25;11.03;;;5.40;;
21168;SDS011;10742;51.816;8.662;2023-04-24T05:18:27;10.10;;;5.10;;
21168;SDS011;10742;51.816;8.662;2023-04-24T05:21:30;9.90;;;5.53;;
21168;SDS011;10742;51.816;8.662;2023-04-24T05:24:41;13.70;;;6.67;;
21168;SDS011;10742;51.816;8.662;2023-04-24T05:28:06;13.00;;;6.33;;
21168;SDS011;10742;51.816;8.662;2023-04-24T05:31:09;10.97;;;5.87;;
21168;SDS011;10742;51.816;8.662;2023-04-24T05:34:12;12.93;;;6.50;;
21168;SDS011;10742;51.816;8.662;2023-04-24T05:37:17;10.53;;;6.00;;
21168;SDS011;10742;51.816;8.662;2023-04-24T05:40:21;12.93;;;6.47;;
21168;SDS011;10742;51.816;8.662;2023-04-24T05:43:23;13.10;;;6.30;;
21168;SDS011;10742;51.816;8.662;2023-04-24T05:46:27;12.43;;;6.20;;
21168;SDS011;10742;51.816;8.662;2023-04-24T05:49:30;11.20;;;5.63;;
21168;SDS011;10742;51.816;8.662;2023-04-24T05:52:33;9.20;;;5.00;;
21168;SDS011;10742;51.816;8.662;2023-04-24T05:55:40;8.53;;;4.70;;
21168;SDS011;10742;51.816;8.662;2023-04-24T05:58:42;7.77;;;4.30;;
21168;SDS011;10742;51.816;8.662;2023-04-24T06:01:45;7.17;;;4.10;;
21168;SDS011;10742;51.816;8.662;2023-04-24T06:04:51;12.47;;;4.87;;
21168;SDS011;10742;51.816;8.662;2023-04-24T06:07:53;10.97;;;5.10;;
21168;SDS011;10742;51.816;8.662;2023-04-24T06:10:58;9.83;;;4.97;;
21168;SDS011;10742;51.816;8.662;2023-04-24T06:14:01;10.53;;;5.40;;
21168;SDS011;10742;51.816;8.662;2023-04-24T06:17:12;14.50;;;5.70;;
21168;SDS011;10742;51.816;8.662;2023-04-24T06:20:17;10.40;;;5.73;;
21168;SDS011;10742;51.816;8.662;2023-04-24T06:23:19;14.07;;;6.43;;
21168;SDS011;10742;51.816;8.662;2023-04-24T06:26:22;12.60;;;5.27;;
21168;SDS011;10742;51.816;8.662;2023-04-24T06:29:27;11.07;;;5.43;;
21168;SDS011;10742;51.816;8.662;2023-04-24T06:32:29;10.90;;;5.37;;
21168;SDS011;10742;51.816;8.662;2023-04-24T06:35:34;12.13;;;5.60;;
21168;SDS011;10742;51.816;8.662;2023-04-24T06:38:37;9.27;;;5.23;;
21168;SDS011;10742;51.816;8.662;2023-04-24T06:41:40;10.63;;;5.43;;
21168;SDS011;10742;51.816;8.662;2023-04-24T06:44:49;14.43;;;5.80;;
21168;SDS011;10742;51.816;8.662;2023-04-24T06:47:52;10.27;;;5.20;;
21168;SDS011;10742;51.816;8.662;2023-04-24T06:50:54;10.97;;;5.13;;
21168;SDS011;10742;51.816;8.662;2023-04-24T06:53:57;10.30;;;4.63;;
21168;SDS011;10742;51.816;8.662;2023-04-24T06:56:59;11.23;;;5.37;;
21168;SDS011;10742;51.816;8.662;2023-04-24T07:00:05;10.40;;;4.87;;
21168;SDS011;10742;51.816;8.662;2023-04-24T07:03:08;9.97;;;4.93;;
21168;SDS011;10742;51.816;8.662;2023-04-24T07:06:12;8.73;;;5.00;;
21168;SDS011;10742;51.816;8.662;2023-04-24T07:09:15;9.63;;;4.50;;
21168;SDS011;10742;51.816;8.662;2023-04-24T07:12:20;11.87;;;4.63;;
21168;SDS011;10742;51.816;8.662;2023-04-24T07:15:23;9.63;;;4.83;;
21168;SDS011;10742;51.816;8.662;2023-04-24T07:18:44;9.07;;;4.77;;
21168;SDS011;10742;51.816;8.662;2023-04-24T07:22:06;10.10;;;4.53;;
21168;SDS011;10742;51.816;8.662;2023-04-24T07:25:27;11.80;;;4.10;;
21168;SDS011;10742;51.816;8.662;2023-04-24T07:28:49;9.43;;;4.07;;
21168;SDS011;10742;51.816;8.662;2023-04-24T07:32:10;11.37;;;4.13;;
21168;SDS011;10742;51.816;8.662;2023-04-24T07:35:31;7.17;;;4.03;;
21168;SDS011;10742;51.816;8.662;2023-04-24T07:38:54;6.40;;;3.70;;
21168;SDS011;10742;51.816;8.662;2023-04-24T07:42:16;6.97;;;4.03;;
21168;SDS011;10742;51.816;8.662;2023-04-24T07:45:37;8.87;;;4.30;;
21168;SDS011;10742;51.816;8.662;2023-04-24T07:48:58;7.17;;;4.27;;
21168;SDS011;10742;51.816;8.662;2023-04-24T07:52:29;6.87;;;3.80;;
21168;SDS011;10742;51.816;8.662;2023-04-24T07:55:50;8.03;;;3.83;;
21168;SDS011;10742;51.816;8.662;2023-04-24T07:59:12;6.07;;;3.50;;
21168;SDS011;10742;51.816;8.662;2023-04-24T08:02:14;8.13;;;4.17;;
21168;SDS011;10742;51.816;8.662;2023-04-24T08:05:17;14.13;;;3.23;;
21168;SDS011;10742;51.816;8.662;2023-04-24T08:08:21;5.53;;;3.53;;
21168;SDS011;10742;51.816;8.662;2023-04-24T08:11:24;6.40;;;3.43;;
21168;SDS011;10742;51.816;8.662;2023-04-24T08:14:27;6.00;;;3.20;;
21168;SDS011;10742;51.816;8.662;2023-04-24T08:17:30;5.60;;;2.77;;
21168;SDS011;10742;51.816;8.662;2023-04-24T08:20:35;7.70;;;3.07;;
21168;SDS011;10742;51.816;8.662;2023-04-24T08:23:38;5.10;;;2.90;;
21168;SDS011;10742;51.816;8.662;2023-04-24T08:26:41;5.53;;;3.10;;
21168;SDS011;10742;51.816;8.662;2023-04-24T08:29:43;5.27;;;2.80;;
21168;SDS011;10742;51.816;8.662;2023-04-24T08:32:46;5.50;;;2.77;;
21168;SDS011;10742;51.816;8.662;2023-04-24T08:35:49;4.97;;;2.87;;
21168;SDS011;10742;51.816;8.662;2023-04-24T08:38:52;4.63;;;2.93;;
21168;SDS011;10742;51.816;8.662;2023-04-24T08:41:55;3.83;;;2.50;;
21168;SDS011;10742;51.816;8.662;2023-04-24T08:44:57;5.03;;;2.67;;
21168;SDS011;10742;51.816;8.662;2023-04-24T08:48:00;4.93;;;3.20;;
21168;SDS011;10742;51.816;8.662;2023-04-24T08:51:04;5.67;;;3.10;;
21168;SDS011;10742;51.816;8.662;2023-04-24T08:54:11;4.97;;;2.70;;
21168;SDS011;10742;51.816;8.662;2023-04-24T08:57:14;4.50;;;2.70;;
21168;SDS011;10742;51.816;8.662;2023-04-24T09:00:19;3.80;;;2.70;;
21168;SDS011;10742;51.816;8.662;2023-04-24T09:03:22;5.23;;;3.00;;
21168;SDS011;10742;51.816;8.662;2023-04-24T09:06:25;4.67;;;2.63;;
21168;SDS011;10742;51.816;8.662;2023-04-24T09:09:29;4.03;;;2.77;;
21168;SDS011;10742;51.816;8.662;2023-04-24T09:12:34;5.13;;;2.50;;
21168;SDS011;10742;51.816;8.662;2023-04-24T09:15:37;2.87;;;2.43;;
21168;SDS011;10742;51.816;8.662;2023-04-24T09:18:40;5.90;;;2.53;;
21168;SDS011;10742;51.816;8.662;2023-04-24T09:21:45;4.03;;;2.30;;
21168;SDS011;10742;51.816;8.662;2023-04-24T09:24:48;2.00;;;1.80;;
21168;SDS011;10742;51.816;8.662;2023-04-24T09:28:04;2.47;;;2.20;;
21168;SDS011;10742;51.816;8.662;2023-04-24T09:31:18;3.43;;;2.00;;
21168;SDS011;10742;51.816;8.662;2023-04-24T09:34:25;2.77;;;2.10;;
21168;SDS011;10742;51.816;8.662;2023-04-24T09:37:29;3.07;;;1.97;;
21168;SDS011;10742;51.816;8.662;2023-04-24T09:40:32;2.40;;;1.83;;
21168;SDS011;10742;51.816;8.662;2023-04-24T09:43:36;1.40;;;1.30;;
21168;SDS011;10742;51.816;8.662;2023-04-24T09:46:39;1.40;;;1.20;;
21168;SDS011;10742;51.816;8.662;2023-04-24T09:49:42;1.17;;;0.97;;
21168;SDS011;10742;51.816;8.662;2023-04-24T09:52:46;5.10;;;1.20;;
21168;SDS011;10742;51.816;8.662;2023-04-24T09:56:07;1.00;;;0.93;;
21168;SDS011;10742;51.816;8.662;2023-04-24T09:59:15;1.03;;;1.00;;
21168;SDS011;10742;51.816;8.662;2023-04-24T10:02:19;0.80;;;0.80;;
21168;SDS011;10742;51.816;8.662;2023-04-24T10:05:23;1.27;;;0.80;;
21168;SDS011;10742;51.816;8.662;2023-04-24T10:08:27;1.03;;;1.00;;
21168;SDS011;10742;51.816;8.662;2023-04-24T10:11:36;4.13;;;0.80;;
21168;SDS011;10742;51.816;8.662;2023-04-24T10:14:39;1.03;;;0.60;;
21168;SDS011;10742;51.816;8.662;2023-04-24T10:17:43;0.83;;;0.60;;
21168;SDS011;10742;51.816;8.662;2023-04-24T10:20:53;0.80;;;0.70;;
21168;SDS011;10742;51.816;8.662;2023-04-24T10:23:56;0.67;;;0.67;;
21168;SDS011;10742;51.816;8.662;2023-04-24T10:27:01;0.70;;;0.70;;
21168;SDS011;10742;51.816;8.662;2023-04-24T10:30:05;0.50;;;0.50;;
21168;SDS011;10742;51.816;8.662;2023-04-24T10:33:08;0.50;;;0.50;;
21168;SDS011;10742;51.816;8.662;2023-04-24T10:36:11;0.93;;;0.60;;
21168;SDS011;10742;51.816;8.662;2023-04-24T10:39:16;0.40;;;0.40;;
21168;SDS011;10742;51.816;8.662;2023-04-24T10:42:20;0.60;;;0.60;;
21168;SDS011;10742;51.816;8.662;2023-04-24T10:45:23;1.97;;;0.60;;
21168;SDS011;10742;51.816;8.662;2023-04-24T10:48:26;0.80;;;0.80;;
21168;SDS011;10742;51.816;8.662;2023-04-24T10:51:48;0.70;;;0.70;;
21168;SDS011;10742;51.816;8.662;2023-04-24T10:54:51;0.57;;;0.57;;
21168;SDS011;10742;51.816;8.662;2023-04-24T10:58:03;0.50;;;0.50;;
21168;SDS011;10742;51.816;8.662;2023-04-24T11:01:06;1.60;;;0.60;;
21168;SDS011;10742;51.816;8.662;2023-04-24T11:04:09;0.80;;;0.80;;
21168;SDS011;10742;51.816;8.662;2023-04-24T11:07:12;0.83;;;0.70;;
21168;SDS011;10742;51.816;8.662;2023-04-24T11:10:28;2.37;;;0.67;;
21168;SDS011;10742;51.816;8.662;2023-04-24T11:16:55;1.33;;;0.60;;
21168;SDS011;10742;51.816;8.662;2023-04-24T11:20:05;0.80;;;0.80;;
21168;SDS011;10742;51.816;8.662;2023-04-24T11:23:16;0.90;;;0.90;;
21168;SDS011;10742;51.816;8.662;2023-04-24T11:26:23;2.73;;;0.80;;
21168;SDS011;10742;51.816;8.662;2023-04-24T11:33:01;0.87;;;0.87;;
21168;SDS011;10742;51.816;8.662;2023-04-24T11:36:05;1.00;;;0.90;;
21168;SDS011;10742;51.816;8.662;2023-04-24T11:39:07;1.13;;;1.10;;
21168;SDS011;10742;51.816;8.662;2023-04-24T11:42:10;2.20;;;1.47;;
21168;SDS011;10742;51.816;8.662;2023-04-24T11:45:20;1.87;;;1.20;;
21168;SDS011;10742;51.816;8.662;2023-04-24T11:48:24;1.10;;;1.10;;
21168;SDS011;10742;51.816;8.662;2023-04-24T11:51:27;2.63;;;1.40;;
21168;SDS011;10742;51.816;8.662;2023-04-24T11:54:31;1.90;;;1.80;;
21168;SDS011;10742;51.816;8.662;2023-04-24T11:57:34;3.13;;;1.60;;
21168;SDS011;10742;51.816;8.662;2023-04-24T12:00:38;1.60;;;1.50;;
21168;SDS011;10742;51.816;8.662;2023-04-24T12:03:40;1.47;;;1.37;;
21168;SDS011;10742;51.816;8.662;2023-04-24T12:07:01;1.87;;;1.60;;
21168;SDS011;10742;51.816;8.662;2023-04-24T12:10:04;2.13;;;1.80;;
21168;SDS011;10742;51.816;8.662;2023-04-24T12:13:10;3.47;;;1.80;;
21168;SDS011;10742;51.816;8.662;2023-04-24T12:16:13;2.60;;;1.80;;
21168;SDS011;10742;51.816;8.662;2023-04-24T12:19:22;3.30;;;1.80;;
21168;SDS011;10742;51.816;8.662;2023-04-24T12:22:25;2.00;;;1.70;;
21168;SDS011;10742;51.816;8.662;2023-04-24T12:25:29;1.90;;;1.60;;
21168;SDS011;10742;51.816;8.662;2023-04-24T12:28:38;1.90;;;1.40;;
21168;SDS011;10742;51.816;8.662;2023-04-24T12:31:41;4.20;;;2.30;;
21168;SDS011;10742;51.816;8.662;2023-04-24T12:34:43;2.83;;;1.63;;
21168;SDS011;10742;51.816;8.662;2023-04-24T12:37:46;2.17;;;1.60;;
21168;SDS011;10742;51.816;8.662;2023-04-24T12:41:00;3.57;;;1.67;;
21168;SDS011;10742;51.816;8.662;2023-04-24T12:44:10;3.30;;;1.83;;
21168;SDS011;10742;51.816;8.662;2023-04-24T12:47:12;4.00;;;2.10;;
21168;SDS011;10742;51.816;8.662;2023-04-24T12:50:15;3.00;;;2.07;;
21168;SDS011;10742;51.816;8.662;2023-04-24T12:53:17;5.60;;;2.50;;
21168;SDS011;10742;51.816;8.662;2023-04-24T12:56:20;4.60;;;2.40;;
21168;SDS011;10742;51.816;8.662;2023-04-24T12:59:22;3.73;;;2.20;;
21168;SDS011;10742;51.816;8.662;2023-04-24T13:02:25;3.70;;;2.60;;
21168;SDS011;10742;51.816;8.662;2023-04-24T13:05:33;3.77;;;2.30;;
21168;SDS011;10742;51.816;8.662;2023-04-24T13:08:36;7.33;;;3.33;;
21168;SDS011;10742;51.816;8.662;2023-04-24T13:11:39;7.87;;;2.97;;
21168;SDS011;10742;51.816;8.662;2023-04-24T13:14:41;9.20;;;3.03;;
21168;SDS011;10742;51.816;8.662;2023-04-24T13:17:44;10.23;;;3.60;;
21168;SDS011;10742;51.816;8.662;2023-04-24T13:20:46;12.37;;;4.20;;
21168;SDS011;10742;51.816;8.662;2023-04-24T13:23:49;10.13;;;3.60;;
21168;SDS011;10742;51.816;8.662;2023-04-24T13:26:54;12.43;;;3.60;;
21168;SDS011;10742;51.816;8.662;2023-04-24T13:29:58;15.73;;;3.83;;
21168;SDS011;10742;51.816;8.662;2023-04-24T13:33:04;11.47;;;3.40;;
21168;SDS011;10742;51.816;8.662;2023-04-24T13:36:10;8.53;;;3.43;;
21168;SDS011;10742;51.816;8.662;2023-04-24T13:39:14;8.67;;;3.63;;
21168;SDS011;10742;51.816;8.662;2023-04-24T13:42:19;7.40;;;3.23;;
21168;SDS011;10742;51.816;8.662;2023-04-24T13:45:23;9.70;;;3.23;;
21168;SDS011;10742;51.816;8.662;2023-04-24T13:48:26;12.10;;;3.80;;
21168;SDS011;10742;51.816;8.662;2023-04-24T13:51:28;11.10;;;3.90;;
21168;SDS011;10742;51.816;8.662;2023-04-24T13:54:31;10.10;;;3.37;;
21168;SDS011;10742;51.816;8.662;2023-04-24T13:57:34;11.67;;;3.37;;
21168;SDS011;10742;51.816;8.662;2023-04-24T14:00:37;14.37;;;3.93;;
21168;SDS011;10742;51.816;8.662;2023-04-24T14:03:39;14.77;;;4.00;;
21168;SDS011;10742;51.816;8.662;2023-04-24T14:06:43;15.77;;;4.63;;
21168;SDS011;10742;51.816;8.662;2023-04-24T14:09:45;24.83;;;7.07;;
21168;SDS011;10742;51.816;8.662;2023-04-24T14:12:48;23.77;;;7.30;;
21168;SDS011;10742;51.816;8.662;2023-04-24T14:15:50;33.17;;;11.27;;
21168;SDS011;10742;51.816;8.662;2023-04-24T14:18:54;31.90;;;9.33;;
21168;SDS011;10742;51.816;8.662;2023-04-24T14:21:57;20.70;;;8.23;;
21168;SDS011;10742;51.816;8.662;2023-04-24T14:25:00;12.03;;;4.43;;
21168;SDS011;10742;51.816;8.662;2023-04-24T14:28:02;11.10;;;4.40;;
21168;SDS011;10742;51.816;8.662;2023-04-24T14:31:05;14.90;;;4.60;;
21168;SDS011;10742;51.816;8.662;2023-04-24T14:34:08;12.67;;;4.17;;
21168;SDS011;10742;51.816;8.662;2023-04-24T14:37:11;14.30;;;4.23;;
21168;SDS011;10742;51.816;8.662;2023-04-24T14:40:13;15.40;;;4.20;;
21168;SDS011;10742;51.816;8.662;2023-04-24T14:43:21;14.07;;;4.57;;
21168;SDS011;10742;51.816;8.662;2023-04-24T14:46:24;12.30;;;4.50;;
21168;SDS011;10742;51.816;8.662;2023-04-24T14:49:27;8.43;;;4.53;;
21168;SDS011;10742;51.816;8.662;2023-04-24T14:52:29;12.67;;;3.60;;
21168;SDS011;10742;51.816;8.662;2023-04-24T14:55:32;11.57;;;3.80;;
21168;SDS011;10742;51.816;8.662;2023-04-24T14:58:36;7.87;;;3.63;;
21168;SDS011;10742;51.816;8.662;2023-04-24T15:01:38;8.63;;;3.37;;
21168;SDS011;10742;51.816;8.662;2023-04-24T15:04:41;9.17;;;3.20;;
21168;SDS011;10742;51.816;8.662;2023-04-24T15:07:44;16.43;;;6.73;;
21168;SDS011;10742;51.816;8.662;2023-04-24T15:10:47;9.93;;;3.60;;
21168;SDS011;10742;51.816;8.662;2023-04-24T15:13:50;10.83;;;3.30;;
21168;SDS011;10742;51.816;8.662;2023-04-24T15:16:52;8.67;;;3.00;;
21168;SDS011;10742;51.816;8.662;2023-04-24T15:19:55;11.27;;;3.00;;
21168;SDS011;10742;51.816;8.662;2023-04-24T15:22:57;6.10;;;2.60;;
21168;SDS011;10742;51.816;8.662;2023-04-24T15:26:02;7.13;;;2.70;;
21168;SDS011;10742;51.816;8.662;2023-04-24T15:29:04;6.57;;;2.90;;
21168;SDS011;10742;51.816;8.662;2023-04-24T15:32:07;24.27;;;8.70;;
21168;SDS011;10742;51.816;8.662;2023-04-24T15:35:10;8.77;;;4.00;;
21168;SDS011;10742;51.816;8.662;2023-04-24T15:38:15;15.27;;;4.63;;
21168;SDS011;10742;51.816;8.662;2023-04-24T15:41:18;11.77;;;4.27;;
21168;SDS011;10742;51.816;8.662;2023-04-24T15:44:21;9.27;;;3.43;;
21168;SDS011;10742;51.816;8.662;2023-04-24T15:47:24;8.57;;;3.20;;
21168;SDS011;10742;51.816;8.662;2023-04-24T15:50:27;5.90;;;2.87;;
21168;SDS011;10742;51.816;8.662;2023-04-24T15:53:30;6.53;;;3.10;;
21168;SDS011;10742;51.816;8.662;2023-04-24T15:56:33;7.20;;;2.93;;
21168;SDS011;10742;51.816;8.662;2023-04-24T15:59:38;5.43;;;2.97;;
21168;SDS011;10742;51.816;8.662;2023-04-24T16:02:40;10.23;;;3.30;;
21168;SDS011;10742;51.816;8.662;2023-04-24T16:05:43;13.70;;;5.97;;
21168;SDS011;10742;51.816;8.662;2023-04-24T16:08:45;12.17;;;4.07;;
21168;SDS011;10742;51.816;8.662;2023-04-24T16:11:48;13.10;;;5.40;;
21168;SDS011;10742;51.816;8.662;2023-04-24T16:14:51;7.93;;;3.23;;
21168;SDS011;10742;51.816;8.662;2023-04-24T16:17:53;5.43;;;2.70;;
21168;SDS011;10742;51.816;8.662;2023-04-24T16:20:56;6.17;;;2.70;;
21168;SDS011;10742;51.816;8.662;2023-04-24T16:23:58;5.80;;;2.70;;
21168;SDS011;10742;51.816;8.662;2023-04-24T16:27:00;8.03;;;2.40;;
21168;SDS011;10742;51.816;8.662;2023-04-24T16:30:04;4.70;;;2.07;;
21168;SDS011;10742;51.816;8.662;2023-04-24T16:33:07;4.23;;;2.07;;
21168;SDS011;10742;51.816;8.662;2023-04-24T16:36:11;8.80;;;2.53;;
21168;SDS011;10742;51.816;8.662;2023-04-24T16:39:14;10.80;;;3.10;;
21168;SDS011;10742;51.816;8.662;2023-04-24T16:42:16;6.10;;;2.40;;
21168;SDS011;10742;51.816;8.662;2023-04-24T16:45:19;3.87;;;2.17;;
21168;SDS011;10742;51.816;8.662;2023-04-24T16:48:22;6.93;;;2.37;;
21168;SDS011;10742;51.816;8.662;2023-04-24T16:51:24;14.33;;;4.70;;
21168;SDS011;10742;51.816;8.662;2023-04-24T16:54:28;11.03;;;3.77;;
21168;SDS011;10742;51.816;8.662;2023-04-24T16:57:31;6.27;;;2.43;;
21168;SDS011;10742;51.816;8.662;2023-04-24T17:00:34;3.00;;;1.87;;
21168;SDS011;10742;51.816;8.662;2023-04-24T17:03:37;5.97;;;2.30;;
21168;SDS011;10742;51.816;8.662;2023-04-24T17:06:40;4.10;;;2.40;;
21168;SDS011;10742;51.816;8.662;2023-04-24T17:09:42;8.17;;;3.43;;
21168;SDS011;10742;51.816;8.662;2023-04-24T17:12:45;5.77;;;2.53;;
21168;SDS011;10742;51.816;8.662;2023-04-24T17:15:48;6.20;;;2.40;;
21168;SDS011;10742;51.816;8.662;2023-04-24T17:18:50;4.50;;;2.10;;
21168;SDS011;10742;51.816;8.662;2023-04-24T17:21:53;8.47;;;2.80;;
21168;SDS011;10742;51.816;8.662;2023-04-24T17:24:55;10.00;;;2.50;;
21168;SDS011;10742;51.816;8.662;2023-04-24T17:27:58;7.73;;;2.60;;
21168;SDS011;10742;51.816;8.662;2023-04-24T17:31:01;5.10;;;2.23;;
21168;SDS011;10742;51.816;8.662;2023-04-24T17:34:03;6.70;;;3.00;;
21168;SDS011;10742;51.816;8.662;2023-04-24T17:37:24;4.80;;;2.30;;
21168;SDS011;10742;51.816;8.662;2023-04-24T17:40:46;4.23;;;2.17;;
21168;SDS011;10742;51.816;8.662;2023-04-24T17:44:07;11.27;;;3.10;;
21168;SDS011;10742;51.816;8.662;2023-04-24T17:47:29;7.27;;;2.97;;
21168;SDS011;10742;51.816;8.662;2023-04-24T17:50:31;10.80;;;4.60;;
21168;SDS011;10742;51.816;8.662;2023-04-24T17:53:34;7.43;;;3.10;;
21168;SDS011;10742;51.816;8.662;2023-04-24T17:56:36;5.27;;;2.83;;
21168;SDS011;10742;51.816;8.662;2023-04-24T17:59:39;8.30;;;3.17;;
21168;SDS011;10742;51.816;8.662;2023-04-24T18:02:42;9.83;;;3.10;;
21168;SDS011;10742;51.816;8.662;2023-04-24T18:05:44;12.27;;;3.50;;
21168;SDS011;10742;51.816;8.662;2023-04-24T18:08:47;8.17;;;2.87;;
21168;SDS011;10742;51.816;8.662;2023-04-24T18:11:49;9.33;;;2.80;;
21168;SDS011;10742;51.816;8.662;2023-04-24T18:14:52;5.97;;;2.40;;
21168;SDS011;10742;51.816;8.662;2023-04-24T18:18:00;8.60;;;2.67;;
21168;SDS011;10742;51.816;8.662;2023-04-24T18:21:03;6.40;;;2.50;;
21168;SDS011;10742;51.816;8.662;2023-04-24T18:24:05;8.67;;;2.83;;
21168;SDS011;10742;51.816;8.662;2023-04-24T18:27:08;14.27;;;2.67;;
21168;SDS011;10742;51.816;8.662;2023-04-24T18:30:10;9.43;;;2.73;;
21168;SDS011;10742;51.816;8.662;2023-04-24T18:33:15;7.40;;;2.60;;
21168;SDS011;10742;51.816;8.662;2023-04-24T18:36:17;6.67;;;2.70;;
21168;SDS011;10742;51.816;8.662;2023-04-24T18:39:20;7.50;;;2.73;;